Filia Ariea — PIET — position and weather

sailwx.info

Track history (hours):
 
Tides and Currents Weather Stations Pressure Air Temp Water Temp Dewpoint Dewpoint Depression Visibility Wind Speed Wind Dir Waves Ship Positions

Filia Ariea

Last reported at 2017-Jun-24 21:13 UTC. Time now 2017-Jun-26 14:09 UTC.
Position N 49°28' E 000°40'.

Length 90 m; draft 4.4 m.

Type: Ship. MMSI: 244662000.

Date/timePositionNaut miles runAvg speedWind from/ knotsBaromVisibWave heightAir tempDewpointWater temp
2017-Jun-24 21:13N 49°28' E 000°40'314.6
2017-Jun-24 21:00N 49°26' E 000°37'611.5
2017-Jun-24 20:31N 49°29' E 000°30'815.2
2017-Jun-24 20:00N 49°26' E 000°19'714.6
2017-Jun-24 19:31N 49°26' E 000°08'713.0
2017-Jun-24 19:00N 49°28' W 000°02'510.7
2017-Jun-24 18:31N 49°33' W 000°04'612.1
2017-Jun-24 18:01N 49°39' W 000°04'612.1
2017-Jun-24 17:30N 49°45' W 000°04'612.0
2017-Jun-24 17:00N 49°51' W 000°04'611.5
2017-Jun-24 16:30N 49°57' W 000°05'611.2
2017-Jun-24 16:00N 50°03' W 000°06'511.0
2017-Jun-24 15:31N 50°08' W 000°07'510.8
2017-Jun-24 15:01N 50°13' W 000°07'510.4
2017-Jun-24 14:29N 50°19' W 000°08'31 9.2
2017-Jun-24 11:05N 50°35' E 000°34'1 9.5
2017-Jun-24 10:59N 50°35' E 000°36'5 9.2
2017-Jun-24 10:26N 50°38' E 000°43'4 9.0
2017-Jun-24 10:01N 50°40' E 000°48'5 8.8
2017-Jun-24 09:29N 50°43' E 000°54'4 8.8
2017-Jun-24 09:00N 50°45' E 000°59'8 9.3
2017-Jun-24 08:12N 50°49' E 001°09'2 9.4
2017-Jun-24 08:00N 50°50' E 001°11'510.2
2017-Jun-24 07:30N 50°54' E 001°17'611.5
2017-Jun-24 07:01N 50°58' E 001°23'612.1
2017-Jun-24 06:30N 51°02' E 001°30'612.6
2017-Jun-24 06:00N 51°07' E 001°37'612.1
2017-Jun-24 05:30N 51°11' E 001°44'611.0
2017-Jun-24 05:01N 51°15' E 001°49'510.1
2017-Jun-24 04:31N 51°20' E 001°54'5 9.5
2017-Jun-24 04:01N 51°24' E 001°58'4 7.6
2017-Jun-24 03:30N 51°23' E 002°04'5 9.5
2017-Jun-24 03:01N 51°21' E 002°11'4 8.5
2017-Jun-24 02:30N 51°21' E 002°18'4 7.8
2017-Jun-24 02:01N 51°22' E 002°24'4 7.3
2017-Jun-24 01:31N 51°23' E 002°29'4 7.2
2017-Jun-24 01:01N 51°23' E 002°35'4 7.2
2017-Jun-24 00:30N 51°23' E 002°41'3 5.1
2017-Jun-24 00:01N 51°22' E 002°45'4 7.7
2017-Jun-23 23:31N 51°22' E 002°51'4 7.5
2017-Jun-23 23:00N 51°22' E 002°57'4 7.3
2017-Jun-23 22:30N 51°22' E 003°03'4 8.1
2017-Jun-23 22:00N 51°23' E 003°09'4 8.4
2017-Jun-23 21:30N 51°24' E 003°16'5 9.5
2017-Jun-23 20:59N 51°25' E 003°24'5 9.3
2017-Jun-23 20:28N 51°25' E 003°31'4 9.0
2017-Jun-23 20:00N 51°25' E 003°38'510.2
2017-Jun-23 19:30N 51°22' E 003°45'510.9
2017-Jun-23 19:00N 51°21' E 003°53'611.7
2017-Jun-23 18:30N 51°26' E 003°59'510.0
2017-Jun-23 18:00N 51°22' E 004°04'510.2
2017-Jun-23 17:28N 51°23' E 004°13'3 6.6
2017-Jun-23 16:59N 51°21' E 004°17'0 0.0
2017-Jun-23 16:30N 51°21' E 004°17'1 0.8
2017-Jun-23 15:20N 51°22' E 004°17'0 0.0
2017-Jun-23 10:04N 51°22' E 004°17'0 0.0
2017-Jun-23 09:52N 51°22' E 004°17'0 0.0
2017-Jun-23 09:27N 51°22' E 004°17'0 0.0
2017-Jun-23 02:42N 51°22' E 004°17'0 0.0
2017-Jun-23 02:24N 51°22' E 004°17'0 0.0
2017-Jun-23 01:06N 51°22' E 004°17'0 0.0
2017-Jun-23 01:00N 51°22' E 004°17'0 0.0
2017-Jun-23 00:23N 51°22' E 004°17'0 0.0
2017-Jun-22 18:52N 51°22' E 004°17'0 0.2
2017-Jun-22 18:30N 51°22' E 004°17'1 2.2
2017-Jun-22 18:01N 51°21' E 004°18'4 7.2
2017-Jun-22 17:30N 51°17' E 004°20'1 1.3
2017-Jun-22 17:01N 51°17' E 004°20'0 0.7
2017-Jun-22 16:30N 51°17' E 004°20'2 3.5
2017-Jun-22 16:00N 51°15' E 004°19'4 7.4
2017-Jun-22 15:30N 51°14' E 004°24'4 7.4
2017-Jun-22 15:01N 51°11' E 004°20'1 1.2
2017-Jun-22 14:00N 51°10' E 004°20'0 0.0
2017-Jun-22 13:30N 51°10' E 004°20'0 0.0
2017-Jun-22 13:00N 51°10' E 004°20'0 0.0
2017-Jun-22 12:30N 51°10' E 004°20'0 0.0
2017-Jun-22 12:00N 51°10' E 004°20'0 0.0
2017-Jun-22 11:30N 51°10' E 004°20'0 0.0
2017-Jun-22 11:00N 51°10' E 004°20'0 0.0
2017-Jun-22 10:30N 51°10' E 004°20'0 0.0
2017-Jun-22 10:00N 51°10' E 004°20'0 0.0
2017-Jun-22 09:30N 51°10' E 004°20'0 0.0
2017-Jun-22 09:00N 51°10' E 004°20'0 0.0
2017-Jun-22 08:30N 51°10' E 004°20'0 0.0
2017-Jun-22 07:54N 51°10' E 004°20'0 0.0
2017-Jun-22 07:30N 51°10' E 004°20'0 0.0
2017-Jun-22 06:59N 51°10' E 004°20'0 0.0
2017-Jun-22 06:11N 51°10' E 004°20'0 0.0
2017-Jun-22 05:59N 51°10' E 004°20'0 0.0
2017-Jun-22 05:11N 51°10' E 004°20'0 0.0
2017-Jun-22 04:46N 51°10' E 004°20'0 0.0
2017-Jun-22 03:34N 51°10' E 004°20'0 0.0
2017-Jun-22 03:22N 51°10' E 004°20'0 0.0
2017-Jun-22 02:58N 51°10' E 004°20'0 0.0
2017-Jun-22 02:15N 51°10' E 004°20'0 0.0
2017-Jun-22 02:00N 51°10' E 004°20'0 0.0
2017-Jun-22 01:30N 51°10' E 004°20'0 0.0
2017-Jun-22 01:00N 51°10' E 004°20'0 0.0
2017-Jun-22 00:24N 51°10' E 004°20'0 0.0
2017-Jun-21 23:53N 51°10' E 004°20'0 0.0
2017-Jun-21 22:44N 51°10' E 004°20'0 0.0
2017-Jun-21 22:14N 51°10' E 004°20'0 0.0
2017-Jun-21 21:49N 51°10' E 004°20'0 0.0
2017-Jun-21 21:25N 51°10' E 004°20'0 0.0
2017-Jun-21 20:55N 51°10' E 004°20'0 0.0
2017-Jun-21 20:22N 51°10' E 004°20'0 0.0
2017-Jun-21 18:54N 51°10' E 004°20'0 0.0
2017-Jun-21 18:30N 51°10' E 004°20'0 0.0
2017-Jun-21 17:54N 51°10' E 004°20'0 0.0
2017-Jun-21 17:30N 51°10' E 004°20'0 0.0
2017-Jun-21 14:46N 51°10' E 004°20'0 0.0
2017-Jun-21 14:19N 51°10' E 004°20'0 0.0
2017-Jun-21 13:28N 51°10' E 004°20'0 0.0
2017-Jun-21 12:58N 51°10' E 004°20'0 0.0
2017-Jun-21 12:30N 51°10' E 004°20'0 0.0
2017-Jun-21 11:57N 51°10' E 004°20'0 0.0
2017-Jun-21 11:30N 51°10' E 004°20'0 0.0
2017-Jun-21 10:51N 51°10' E 004°20'0 0.0
2017-Jun-21 10:27N 51°10' E 004°20'0 0.0
2017-Jun-21 10:00N 51°10' E 004°20'0 0.4
2017-Jun-21 09:31N 51°10' E 004°20'1 2.7
2017-Jun-21 09:00N 51°11' E 004°20'4 7.9
2017-Jun-21 08:31N 51°14' E 004°24'4 7.6
2017-Jun-21 08:01N 51°16' E 004°19'4 7.3
2017-Jun-21 07:30N 51°20' E 004°16'4 8.0
2017-Jun-21 07:01N 51°23' E 004°13'3 6.4
2017-Jun-21 06:30N 51°22' E 004°08'3 6.9
2017-Jun-21 06:00N 51°23' E 004°02'3 7.0
2017-Jun-21 05:30N 51°26' E 004°00'4 7.1
2017-Jun-21 05:01N 51°23' E 003°57'4 7.5
2017-Jun-21 04:30N 51°21' E 003°52'3 6.9
2017-Jun-21 04:01N 51°21' E 003°47'4 7.2
2017-Jun-21 03:30N 51°24' E 003°42'3 6.3
2017-Jun-21 03:00N 51°25' E 003°38'3 6.4
2017-Jun-21 02:30N 51°25' E 003°33'4 8.3
2017-Jun-21 02:01N 51°25' E 003°26'4 8.9
2017-Jun-21 01:30N 51°24' E 003°19'5 9.2
2017-Jun-21 01:00N 51°23' E 003°12'5 9.4
2017-Jun-21 00:30N 51°22' E 003°05'4 8.9
2017-Jun-21 00:00N 51°22' E 002°57'5 9.3
2017-Jun-20 23:31N 51°22' E 002°50'4 8.5
2017-Jun-20 23:01N 51°22' E 002°43'4 8.2
2017-Jun-20 22:30N 51°20' E 002°38'3 4.6
2017-Jun-20 21:55N 51°20' E 002°33'0 0.0
2017-Jun-20 21:28N 51°20' E 002°33'0 0.0
2017-Jun-20 21:01N 51°20' E 002°33'0 0.1
2017-Jun-20 20:30N 51°20' E 002°33'0 0.2
2017-Jun-20 20:00N 51°20' E 002°33'0 0.0
2017-Jun-20 19:30N 51°20' E 002°33'0 0.0
2017-Jun-20 19:00N 51°20' E 002°33'0 0.0
2017-Jun-20 18:29N 51°20' E 002°33'0 0.0
2017-Jun-20 17:59N 51°20' E 002°33'0 0.0
2017-Jun-20 17:29N 51°20' E 002°33'0 0.0
2017-Jun-20 16:59N 51°20' E 002°33'0 0.0
2017-Jun-20 16:25N 51°20' E 002°33'0 0.0
2017-Jun-20 15:58N 51°20' E 002°33'0 0.0
2017-Jun-20 15:28N 51°20' E 002°33'0 0.0
2017-Jun-20 14:58N 51°20' E 002°33'0 0.0
2017-Jun-20 14:28N 51°20' E 002°33'0 0.0
2017-Jun-20 13:30N 51°20' E 002°33'0 0.0
2017-Jun-20 13:00N 51°20' E 002°33'0 0.2
2017-Jun-20 12:30N 51°20' E 002°33'0 0.0
2017-Jun-20 12:00N 51°20' E 002°33'0 0.0
2017-Jun-20 11:29N 51°20' E 002°33'0 0.1
2017-Jun-20 10:59N 51°20' E 002°33'0 0.1
2017-Jun-20 10:29N 51°20' E 002°33'0 0.1
2017-Jun-20 09:59N 51°20' E 002°33'0 0.2
2017-Jun-20 09:30N 51°20' E 002°34'1 2.9
2017-Jun-20 09:00N 51°21' E 002°33'3 7.0
2017-Jun-20 08:30N 51°21' E 002°28'4 8.1
2017-Jun-20 08:00N 51°19' E 002°22'4 8.2
2017-Jun-20 07:30N 51°17' E 002°16'4 8.5
2017-Jun-20 07:00N 51°15' E 002°10'4 8.5
2017-Jun-20 06:31N 51°13' E 002°05'4 8.4
2017-Jun-20 06:00N 51°11' E 001°59'4 8.2
2017-Jun-20 05:30N 51°09' E 001°53'4 8.5
2017-Jun-20 05:00N 51°06' E 001°47'4 7.9
2017-Jun-20 04:30N 51°04' E 001°43'4 8.0
2017-Jun-20 04:00N 51°01' E 001°38'4 8.2
2017-Jun-20 03:30N 50°57' E 001°34'4 8.0
2017-Jun-20 02:59N 50°54' E 001°30'4 7.8
2017-Jun-20 02:28N 50°51' E 001°27'4 7.8
2017-Jun-20 01:56N 50°47' E 001°24'3 7.8
2017-Jun-20 01:30N 50°44' E 001°21'20 7.8
2017-Jun-19 22:57N 50°32' E 000°57'35 7.9
2017-Jun-19 18:34N 50°22' E 000°05'1 8.2
2017-Jun-19 18:29N 50°21' E 000°04'4 7.6
2017-Jun-19 18:00N 50°21' W 000°02'4 7.6
2017-Jun-19 17:30N 50°20' W 000°08'4 7.9
2017-Jun-19 17:00N 50°20' W 000°14'5 9.8
2017-Jun-19 16:30N 50°19' W 000°22'45 9.6
2017-Jun-19 11:49N 50°16' W 001°32'3 7.9
2017-Jun-19 11:30N 50°16' W 001°36'6 7.4
2017-Jun-19 10:44N 50°15' W 001°45'2 6.9
2017-Jun-19 10:29N 50°15' W 001°47'3 6.9
2017-Jun-19 10:00N 50°15' W 001°53'8 8.9
2017-Jun-19 09:06N 50°14' W 002°05'1 6.3
2017-Jun-19 08:57N 50°14' W 002°06'3 6.2
2017-Jun-19 08:30N 50°14' W 002°11'3 6.3
2017-Jun-19 08:00N 50°13' W 002°16'4 6.7
2017-Jun-19 07:29N 50°13' W 002°21'3 7.2
2017-Jun-19 07:00N 50°13' W 002°27'4 7.7
2017-Jun-19 06:30N 50°13' W 002°32'4 8.2
2017-Jun-19 06:00N 50°12' W 002°39'4 8.4
2017-Jun-19 05:30N 50°12' W 002°45'4 8.5
2017-Jun-19 05:00N 50°12' W 002°52'4 8.8
2017-Jun-19 04:30N 50°11' W 002°59'4 8.8
2017-Jun-19 04:00N 50°11' W 003°06'4 8.8
2017-Jun-19 03:30N 50°11' W 003°13'4 8.9
2017-Jun-19 03:00N 50°10' W 003°19'4 9.0
2017-Jun-19 02:30N 50°10' W 003°26'5 9.1
2017-Jun-19 02:00N 50°10' W 003°33'5 9.2
2017-Jun-19 01:30N 50°09' W 003°41'5 9.0
2017-Jun-19 01:00N 50°09' W 003°48'5 9.0
2017-Jun-19 00:29N 50°09' W 003°55'4 8.9
2017-Jun-19 00:00N 50°09' W 004°02'4 8.9
2017-Jun-18 23:30N 50°09' W 004°09'5 9.0
2017-Jun-18 23:00N 50°09' W 004°16'5 8.9
2017-Jun-18 22:29N 50°10' W 004°23'5 8.8
2017-Jun-18 21:53N 50°10' W 004°31'4 8.6
2017-Jun-18 21:28N 50°10' W 004°36'4 8.5
2017-Jun-18 20:58N 50°11' W 004°43'5 8.2
2017-Jun-18 20:18N 50°11' W 004°52'3 0.2
2017-Jun-18 03:04N 50°10' W 004°56'110.8
2017-Jun-18 03:00N 50°09' W 004°56'510.9
2017-Jun-18 02:30N 50°04' W 004°57'611.0
2017-Jun-18 01:59N 49°58' W 004°60'1611.2
2017-Jun-18 00:36N 49°43' W 005°05'410.3
2017-Jun-18 00:10N 49°39' W 005°06'210.4
2017-Jun-18 00:00N 49°37' W 005°07'510.4
2017-Jun-17 23:30N 49°32' W 005°09'1210.8
2017-Jun-17 22:21N 49°20' W 005°14'411.0
2017-Jun-17 22:00N 49°17' W 005°16'510.9
2017-Jun-17 21:30N 49°11' W 005°19'611.1
2017-Jun-17 21:00N 49°06' W 005°21'511.0
2017-Jun-17 20:30N 49°01' W 005°24'510.9
2017-Jun-17 20:00N 48°56' W 005°27'510.7
2017-Jun-17 19:30N 48°51' W 005°31'611.1
2017-Jun-17 19:00N 48°47' W 005°36'510.7
2017-Jun-17 18:30N 48°42' W 005°38'510.4
2017-Jun-17 18:00N 48°37' W 005°42'510.1
2017-Jun-17 17:30N 48°32' W 005°43'510.2
2017-Jun-17 17:00N 48°27' W 005°44'5 9.7
2017-Jun-17 16:29N 48°22' W 005°44'8 9.6
2017-Jun-17 15:40N 48°14' W 005°44'2 9.5
2017-Jun-17 15:29N 48°12' W 005°45'112 9.9
2017-Jun-17 04:12N 46°20' W 005°50'210.2
2017-Jun-17 04:00N 46°18' W 005°51'510.3
2017-Jun-17 03:31N 46°13' W 005°51'  
Track history (hours):
 
Tides and Currents Weather Stations Pressure Air Temp Water Temp Dewpoint Dewpoint Depression Visibility Wind Speed Wind Dir Waves Ship Positions

Filia Ariea

Last reported at 2017-Jun-24 21:13 UTC. Time now 2017-Jun-26 14:09 UTC.
Position N 49°28' E 000°40'.

Length 90 m; draft 4.4 m.

Type: Ship. MMSI: 244662000.

Date/timePositionNaut miles runAvg speedWind from/ knotsBaromVisibWave heightAir tempDewpointWater temp
2017-Jun-24 21:13N 49°28' E 000°40'314.6
2017-Jun-24 21:00N 49°26' E 000°37'611.5
2017-Jun-24 20:31N 49°29' E 000°30'815.2
2017-Jun-24 20:00N 49°26' E 000°19'714.6
2017-Jun-24 19:31N 49°26' E 000°08'713.0
2017-Jun-24 19:00N 49°28' W 000°02'510.7
2017-Jun-24 18:31N 49°33' W 000°04'612.1
2017-Jun-24 18:01N 49°39' W 000°04'612.1
2017-Jun-24 17:30N 49°45' W 000°04'612.0
2017-Jun-24 17:00N 49°51' W 000°04'611.5
2017-Jun-24 16:30N 49°57' W 000°05'611.2
2017-Jun-24 16:00N 50°03' W 000°06'511.0
2017-Jun-24 15:31N 50°08' W 000°07'510.8
2017-Jun-24 15:01N 50°13' W 000°07'510.4
2017-Jun-24 14:29N 50°19' W 000°08'31 9.2
2017-Jun-24 11:05N 50°35' E 000°34'1 9.5
2017-Jun-24 10:59N 50°35' E 000°36'5 9.2
2017-Jun-24 10:26N 50°38' E 000°43'4 9.0
2017-Jun-24 10:01N 50°40' E 000°48'5 8.8
2017-Jun-24 09:29N 50°43' E 000°54'4 8.8
2017-Jun-24 09:00N 50°45' E 000°59'8 9.3
2017-Jun-24 08:12N 50°49' E 001°09'2 9.4
2017-Jun-24 08:00N 50°50' E 001°11'510.2
2017-Jun-24 07:30N 50°54' E 001°17'611.5
2017-Jun-24 07:01N 50°58' E 001°23'612.1
2017-Jun-24 06:30N 51°02' E 001°30'612.6
2017-Jun-24 06:00N 51°07' E 001°37'612.1
2017-Jun-24 05:30N 51°11' E 001°44'611.0
2017-Jun-24 05:01N 51°15' E 001°49'510.1
2017-Jun-24 04:31N 51°20' E 001°54'5 9.5
2017-Jun-24 04:01N 51°24' E 001°58'4 7.6
2017-Jun-24 03:30N 51°23' E 002°04'5 9.5
2017-Jun-24 03:01N 51°21' E 002°11'4 8.5
2017-Jun-24 02:30N 51°21' E 002°18'4 7.8
2017-Jun-24 02:01N 51°22' E 002°24'4 7.3
2017-Jun-24 01:31N 51°23' E 002°29'4 7.2
2017-Jun-24 01:01N 51°23' E 002°35'4 7.2
2017-Jun-24 00:30N 51°23' E 002°41'3 5.1
2017-Jun-24 00:01N 51°22' E 002°45'4 7.7
2017-Jun-23 23:31N 51°22' E 002°51'4 7.5
2017-Jun-23 23:00N 51°22' E 002°57'4 7.3
2017-Jun-23 22:30N 51°22' E 003°03'4 8.1
2017-Jun-23 22:00N 51°23' E 003°09'4 8.4
2017-Jun-23 21:30N 51°24' E 003°16'5 9.5
2017-Jun-23 20:59N 51°25' E 003°24'5 9.3
2017-Jun-23 20:28N 51°25' E 003°31'4 9.0
2017-Jun-23 20:00N 51°25' E 003°38'510.2
2017-Jun-23 19:30N 51°22' E 003°45'510.9
2017-Jun-23 19:00N 51°21' E 003°53'611.7
2017-Jun-23 18:30N 51°26' E 003°59'510.0
2017-Jun-23 18:00N 51°22' E 004°04'510.2
2017-Jun-23 17:28N 51°23' E 004°13'3 6.6
2017-Jun-23 16:59N 51°21' E 004°17'0 0.0
2017-Jun-23 16:30N 51°21' E 004°17'1 0.8
2017-Jun-23 15:20N 51°22' E 004°17'0 0.0
2017-Jun-23 10:04N 51°22' E 004°17'0 0.0
2017-Jun-23 09:52N 51°22' E 004°17'0 0.0
2017-Jun-23 09:27N 51°22' E 004°17'0 0.0
2017-Jun-23 02:42N 51°22' E 004°17'0 0.0
2017-Jun-23 02:24N 51°22' E 004°17'0 0.0
2017-Jun-23 01:06N 51°22' E 004°17'0 0.0
2017-Jun-23 01:00N 51°22' E 004°17'0 0.0
2017-Jun-23 00:23N 51°22' E 004°17'0 0.0
2017-Jun-22 18:52N 51°22' E 004°17'0 0.2
2017-Jun-22 18:30N 51°22' E 004°17'1 2.2
2017-Jun-22 18:01N 51°21' E 004°18'4 7.2
2017-Jun-22 17:30N 51°17' E 004°20'1 1.3
2017-Jun-22 17:01N 51°17' E 004°20'0 0.7
2017-Jun-22 16:30N 51°17' E 004°20'2 3.5
2017-Jun-22 16:00N 51°15' E 004°19'4 7.4
2017-Jun-22 15:30N 51°14' E 004°24'4 7.4
2017-Jun-22 15:01N 51°11' E 004°20'1 1.2
2017-Jun-22 14:00N 51°10' E 004°20'0 0.0
2017-Jun-22 13:30N 51°10' E 004°20'0 0.0
2017-Jun-22 13:00N 51°10' E 004°20'0 0.0
2017-Jun-22 12:30N 51°10' E 004°20'0 0.0
2017-Jun-22 12:00N 51°10' E 004°20'0 0.0
2017-Jun-22 11:30N 51°10' E 004°20'0 0.0
2017-Jun-22 11:00N 51°10' E 004°20'0 0.0
2017-Jun-22 10:30N 51°10' E 004°20'0 0.0
2017-Jun-22 10:00N 51°10' E 004°20'0 0.0
2017-Jun-22 09:30N 51°10' E 004°20'0 0.0
2017-Jun-22 09:00N 51°10' E 004°20'0 0.0
2017-Jun-22 08:30N 51°10' E 004°20'0 0.0
2017-Jun-22 07:54N 51°10' E 004°20'0 0.0
2017-Jun-22 07:30N 51°10' E 004°20'0 0.0
2017-Jun-22 06:59N 51°10' E 004°20'0 0.0
2017-Jun-22 06:11N 51°10' E 004°20'0 0.0
2017-Jun-22 05:59N 51°10' E 004°20'0 0.0
2017-Jun-22 05:11N 51°10' E 004°20'0 0.0
2017-Jun-22 04:46N 51°10' E 004°20'0 0.0
2017-Jun-22 03:34N 51°10' E 004°20'0 0.0
2017-Jun-22 03:22N 51°10' E 004°20'0 0.0
2017-Jun-22 02:58N 51°10' E 004°20'0 0.0
2017-Jun-22 02:15N 51°10' E 004°20'0 0.0
2017-Jun-22 02:00N 51°10' E 004°20'0 0.0
2017-Jun-22 01:30N 51°10' E 004°20'0 0.0
2017-Jun-22 01:00N 51°10' E 004°20'0 0.0
2017-Jun-22 00:24N 51°10' E 004°20'0 0.0
2017-Jun-21 23:53N 51°10' E 004°20'0 0.0
2017-Jun-21 22:44N 51°10' E 004°20'0 0.0
2017-Jun-21 22:14N 51°10' E 004°20'0 0.0
2017-Jun-21 21:49N 51°10' E 004°20'0 0.0
2017-Jun-21 21:25N 51°10' E 004°20'0 0.0
2017-Jun-21 20:55N 51°10' E 004°20'0 0.0
2017-Jun-21 20:22N 51°10' E 004°20'0 0.0
2017-Jun-21 18:54N 51°10' E 004°20'0 0.0
2017-Jun-21 18:30N 51°10' E 004°20'0 0.0
2017-Jun-21 17:54N 51°10' E 004°20'0 0.0
2017-Jun-21 17:30N 51°10' E 004°20'0 0.0
2017-Jun-21 14:46N 51°10' E 004°20'0 0.0
2017-Jun-21 14:19N 51°10' E 004°20'0 0.0
2017-Jun-21 13:28N 51°10' E 004°20'0 0.0
2017-Jun-21 12:58N 51°10' E 004°20'0 0.0
2017-Jun-21 12:30N 51°10' E 004°20'0 0.0
2017-Jun-21 11:57N 51°10' E 004°20'0 0.0
2017-Jun-21 11:30N 51°10' E 004°20'0 0.0
2017-Jun-21 10:51N 51°10' E 004°20'0 0.0
2017-Jun-21 10:27N 51°10' E 004°20'0 0.0
2017-Jun-21 10:00N 51°10' E 004°20'0 0.4
2017-Jun-21 09:31N 51°10' E 004°20'1 2.7
2017-Jun-21 09:00N 51°11' E 004°20'4 7.9
2017-Jun-21 08:31N 51°14' E 004°24'4 7.6
2017-Jun-21 08:01N 51°16' E 004°19'4 7.3
2017-Jun-21 07:30N 51°20' E 004°16'4 8.0
2017-Jun-21 07:01N 51°23' E 004°13'3 6.4
2017-Jun-21 06:30N 51°22' E 004°08'3 6.9
2017-Jun-21 06:00N 51°23' E 004°02'3 7.0
2017-Jun-21 05:30N 51°26' E 004°00'4 7.1
2017-Jun-21 05:01N 51°23' E 003°57'4 7.5
2017-Jun-21 04:30N 51°21' E 003°52'3 6.9
2017-Jun-21 04:01N 51°21' E 003°47'4 7.2
2017-Jun-21 03:30N 51°24' E 003°42'3 6.3
2017-Jun-21 03:00N 51°25' E 003°38'3 6.4
2017-Jun-21 02:30N 51°25' E 003°33'4 8.3
2017-Jun-21 02:01N 51°25' E 003°26'4 8.9
2017-Jun-21 01:30N 51°24' E 003°19'5 9.2
2017-Jun-21 01:00N 51°23' E 003°12'5 9.4
2017-Jun-21 00:30N 51°22' E 003°05'4 8.9
2017-Jun-21 00:00N 51°22' E 002°57'5 9.3
2017-Jun-20 23:31N 51°22' E 002°50'4 8.5
2017-Jun-20 23:01N 51°22' E 002°43'4 8.2
2017-Jun-20 22:30N 51°20' E 002°38'3 4.6
2017-Jun-20 21:55N 51°20' E 002°33'0 0.0
2017-Jun-20 21:28N 51°20' E 002°33'0 0.0
2017-Jun-20 21:01N 51°20' E 002°33'0 0.1
2017-Jun-20 20:30N 51°20' E 002°33'0 0.2
2017-Jun-20 20:00N 51°20' E 002°33'0 0.0
2017-Jun-20 19:30N 51°20' E 002°33'0 0.0
2017-Jun-20 19:00N 51°20' E 002°33'0 0.0
2017-Jun-20 18:29N 51°20' E 002°33'0 0.0
2017-Jun-20 17:59N 51°20' E 002°33'0 0.0
2017-Jun-20 17:29N 51°20' E 002°33'0 0.0
2017-Jun-20 16:59N 51°20' E 002°33'0 0.0
2017-Jun-20 16:25N 51°20' E 002°33'0 0.0
2017-Jun-20 15:58N 51°20' E 002°33'0 0.0
2017-Jun-20 15:28N 51°20' E 002°33'0 0.0
2017-Jun-20 14:58N 51°20' E 002°33'0 0.0
2017-Jun-20 14:28N 51°20' E 002°33'0 0.0
2017-Jun-20 13:30N 51°20' E 002°33'0 0.0
2017-Jun-20 13:00N 51°20' E 002°33'0 0.2
2017-Jun-20 12:30N 51°20' E 002°33'0 0.0
2017-Jun-20 12:00N 51°20' E 002°33'0 0.0
2017-Jun-20 11:29N 51°20' E 002°33'0 0.1
2017-Jun-20 10:59N 51°20' E 002°33'0 0.1
2017-Jun-20 10:29N 51°20' E 002°33'0 0.1
2017-Jun-20 09:59N 51°20' E 002°33'0 0.2
2017-Jun-20 09:30N 51°20' E 002°34'1 2.9
2017-Jun-20 09:00N 51°21' E 002°33'3 7.0
2017-Jun-20 08:30N 51°21' E 002°28'4 8.1
2017-Jun-20 08:00N 51°19' E 002°22'4 8.2
2017-Jun-20 07:30N 51°17' E 002°16'4 8.5
2017-Jun-20 07:00N 51°15' E 002°10'4 8.5
2017-Jun-20 06:31N 51°13' E 002°05'4 8.4
2017-Jun-20 06:00N 51°11' E 001°59'4 8.2
2017-Jun-20 05:30N 51°09' E 001°53'4 8.5
2017-Jun-20 05:00N 51°06' E 001°47'4 7.9
2017-Jun-20 04:30N 51°04' E 001°43'4 8.0
2017-Jun-20 04:00N 51°01' E 001°38'4 8.2
2017-Jun-20 03:30N 50°57' E 001°34'4 8.0
2017-Jun-20 02:59N 50°54' E 001°30'4 7.8
2017-Jun-20 02:28N 50°51' E 001°27'4 7.8
2017-Jun-20 01:56N 50°47' E 001°24'3 7.8
2017-Jun-20 01:30N 50°44' E 001°21'20 7.8
2017-Jun-19 22:57N 50°32' E 000°57'35 7.9
2017-Jun-19 18:34N 50°22' E 000°05'1 8.2
2017-Jun-19 18:29N 50°21' E 000°04'4 7.6
2017-Jun-19 18:00N 50°21' W 000°02'4 7.6
2017-Jun-19 17:30N 50°20' W 000°08'4 7.9
2017-Jun-19 17:00N 50°20' W 000°14'5 9.8
2017-Jun-19 16:30N 50°19' W 000°22'45 9.6
2017-Jun-19 11:49N 50°16' W 001°32'3 7.9
2017-Jun-19 11:30N 50°16' W 001°36'6 7.4
2017-Jun-19 10:44N 50°15' W 001°45'2 6.9
2017-Jun-19 10:29N 50°15' W 001°47'3 6.9
2017-Jun-19 10:00N 50°15' W 001°53'8 8.9
2017-Jun-19 09:06N 50°14' W 002°05'1 6.3
2017-Jun-19 08:57N 50°14' W 002°06'3 6.2
2017-Jun-19 08:30N 50°14' W 002°11'3 6.3
2017-Jun-19 08:00N 50°13' W 002°16'4 6.7
2017-Jun-19 07:29N 50°13' W 002°21'3 7.2
2017-Jun-19 07:00N 50°13' W 002°27'4 7.7
2017-Jun-19 06:30N 50°13' W 002°32'4 8.2
2017-Jun-19 06:00N 50°12' W 002°39'4 8.4
2017-Jun-19 05:30N 50°12' W 002°45'4 8.5
2017-Jun-19 05:00N 50°12' W 002°52'4 8.8
2017-Jun-19 04:30N 50°11' W 002°59'4 8.8
2017-Jun-19 04:00N 50°11' W 003°06'4 8.8
2017-Jun-19 03:30N 50°11' W 003°13'4 8.9
2017-Jun-19 03:00N 50°10' W 003°19'4 9.0
2017-Jun-19 02:30N 50°10' W 003°26'5 9.1
2017-Jun-19 02:00N 50°10' W 003°33'5 9.2
2017-Jun-19 01:30N 50°09' W 003°41'5 9.0
2017-Jun-19 01:00N 50°09' W 003°48'5 9.0
2017-Jun-19 00:29N 50°09' W 003°55'4 8.9
2017-Jun-19 00:00N 50°09' W 004°02'4 8.9
2017-Jun-18 23:30N 50°09' W 004°09'5 9.0
2017-Jun-18 23:00N 50°09' W 004°16'5 8.9
2017-Jun-18 22:29N 50°10' W 004°23'5 8.8
2017-Jun-18 21:53N 50°10' W 004°31'4 8.6
2017-Jun-18 21:28N 50°10' W 004°36'4 8.5
2017-Jun-18 20:58N 50°11' W 004°43'5 8.2
2017-Jun-18 20:18N 50°11' W 004°52'3 0.2
2017-Jun-18 03:04N 50°10' W 004°56'110.8
2017-Jun-18 03:00N 50°09' W 004°56'510.9
2017-Jun-18 02:30N 50°04' W 004°57'611.0
2017-Jun-18 01:59N 49°58' W 004°60'1611.2
2017-Jun-18 00:36N 49°43' W 005°05'410.3
2017-Jun-18 00:10N 49°39' W 005°06'210.4
2017-Jun-18 00:00N 49°37' W 005°07'510.4
2017-Jun-17 23:30N 49°32' W 005°09'1210.8
2017-Jun-17 22:21N 49°20' W 005°14'411.0
2017-Jun-17 22:00N 49°17' W 005°16'510.9
2017-Jun-17 21:30N 49°11' W 005°19'611.1
2017-Jun-17 21:00N 49°06' W 005°21'511.0
2017-Jun-17 20:30N 49°01' W 005°24'510.9
2017-Jun-17 20:00N 48°56' W 005°27'510.7
2017-Jun-17 19:30N 48°51' W 005°31'611.1
2017-Jun-17 19:00N 48°47' W 005°36'510.7
2017-Jun-17 18:30N 48°42' W 005°38'510.4
2017-Jun-17 18:00N 48°37' W 005°42'510.1
2017-Jun-17 17:30N 48°32' W 005°43'510.2
2017-Jun-17 17:00N 48°27' W 005°44'5 9.7
2017-Jun-17 16:29N 48°22' W 005°44'8 9.6
2017-Jun-17 15:40N 48°14' W 005°44'2 9.5
2017-Jun-17 15:29N 48°12' W 005°45'112 9.9
2017-Jun-17 04:12N 46°20' W 005°50'210.2
2017-Jun-17 04:00N 46°18' W 005°51'510.3
2017-Jun-17 03:31N 46°13' W 005°51'  

Dump ship's entire track history